Time;durP1;ratioP1;P1;durP2;ratioP2;P2;SDS_P1;SDS_P2;PMS_P1;PMS_P2;Temp;Humidity;BMP_temperature;BMP_pressure;BME280_temperature;BME280_humidity;BME280_pressure;Samples;Min_cycle;Max_cycle;Signal;HPM_P1;HPM_P2
2023/07/16 00:01:10;;;;;;;2.40;1.10;;;;;;;;;;2062619;28;20050;-67
2023/07/16 00:02:29;;;;;;;2.15;1.20;;;;;;;;;;2057006;28;20074;-68
2023/07/16 00:03:48;;;;;;;3.05;1.10;;;;;;;;;;2058864;28;20031;-69
2023/07/16 00:05:07;;;;;;;2.53;1.20;;;;;;;;;;2057868;28;20046;-65
2023/07/16 00:06:26;;;;;;;1.40;1.00;;;;;;;;;;2056606;28;20027;-71
2023/07/16 00:07:44;;;;;;;1.55;1.42;;;;;;;;;;2062917;28;20041;-68
2023/07/16 00:09:03;;;;;;;1.65;1.35;;;;;;;;;;2059950;28;20034;-70
2023/07/16 00:10:23;;;;;;;2.03;1.20;;;;;;;;;;2057470;28;20023;-69
2023/07/16 00:11:42;;;;;;;2.17;1.35;;;;;;;;;;2057144;28;20035;-68
2023/07/16 00:13:01;;;;;;;3.88;1.35;;;;;;;;;;2057025;28;20030;-68
2023/07/16 00:14:20;;;;;;;2.10;1.27;;;;;;;;;;2057170;28;20113;-67
2023/07/16 00:15:39;;;;;;;2.53;1.42;;;;;;;;;;2057949;28;20039;-68
2023/07/16 00:16:58;;;;;;;2.17;1.40;;;;;;;;;;2057600;28;20034;-69
2023/07/16 00:18:17;;;;;;;2.78;1.45;;;;;;;;;;2058236;28;20058;-66
2023/07/16 00:19:36;;;;;;;3.28;1.40;;;;;;;;;;2057551;28;20031;-68
2023/07/16 00:20:55;;;;;;;2.15;1.27;;;;;;;;;;2059451;28;20034;-69
2023/07/16 00:22:14;;;;;;;4.13;1.65;;;;;;;;;;2058941;28;20030;-67
2023/07/16 00:23:33;;;;;;;1.80;1.30;;;;;;;;;;2059053;28;20027;-68
2023/07/16 00:24:52;;;;;;;1.67;1.10;;;;;;;;;;2051034;28;20036;-69
2023/07/16 00:26:12;;;;;;;3.70;1.30;;;;;;;;;;2055428;28;20499;-68
2023/07/16 00:27:31;;;;;;;2.28;1.40;;;;;;;;;;2051490;28;20035;-70
2023/07/16 00:28:50;;;;;;;1.88;1.17;;;;;;;;;;2055334;28;20027;-69
2023/07/16 00:30:09;;;;;;;2.55;1.30;;;;;;;;;;2059010;28;20030;-69
2023/07/16 00:31:29;;;;;;;2.10;1.38;;;;;;;;;;2058284;28;20031;-67
2023/07/16 00:32:48;;;;;;;3.80;1.42;;;;;;;;;;2062369;28;20114;-68
2023/07/16 00:34:07;;;;;;;3.05;1.10;;;;;;;;;;2048092;28;20043;-68
2023/07/16 00:35:26;;;;;;;3.40;1.63;;;;;;;;;;2055334;28;20035;-68
2023/07/16 00:36:45;;;;;;;2.63;1.35;;;;;;;;;;2057682;28;20034;-68
2023/07/16 00:38:03;;;;;;;1.70;1.35;;;;;;;;;;2059266;28;20499;-68
2023/07/16 00:39:23;;;;;;;1.98;1.27;;;;;;;;;;2059554;28;20038;-68
2023/07/16 00:40:42;;;;;;;4.10;1.73;;;;;;;;;;2058560;28;20035;-69
2023/07/16 00:42:01;;;;;;;1.77;1.15;;;;;;;;;;2050635;28;20028;-68
2023/07/16 00:43:19;;;;;;;3.50;1.30;;;;;;;;;;2055811;28;20079;-69
2023/07/16 00:44:38;;;;;;;4.72;1.70;;;;;;;;;;2059495;28;20036;-68
2023/07/16 00:45:58;;;;;;;2.55;1.48;;;;;;;;;;2059015;28;20037;-68
2023/07/16 00:47:17;;;;;;;1.85;1.55;;;;;;;;;;2058270;28;20043;-68
2023/07/16 00:48:36;;;;;;;1.80;1.42;;;;;;;;;;2060696;28;20458;-69
2023/07/16 00:49:55;;;;;;;3.20;1.60;;;;;;;;;;2059195;28;20107;-68
2023/07/16 00:51:16;;;;;;;2.45;1.50;;;;;;;;;;2060813;28;20030;-62
2023/07/16 00:52:35;;;;;;;4.13;1.42;;;;;;;;;;2058028;28;20035;-68
2023/07/16 00:53:54;;;;;;;1.65;1.55;;;;;;;;;;2059447;28;20038;-68
2023/07/16 00:55:14;;;;;;;2.67;1.60;;;;;;;;;;2059404;28;20030;-67
2023/07/16 00:56:33;;;;;;;1.55;1.45;;;;;;;;;;2059365;28;20062;-68
2023/07/16 00:57:53;;;;;;;2.00;1.42;;;;;;;;;;2058990;28;20030;-67
2023/07/16 00:59:12;;;;;;;2.97;1.70;;;;;;;;;;2057520;28;20035;-69
2023/07/16 01:00:31;;;;;;;2.15;1.50;;;;;;;;;;2059487;28;20395;-68
2023/07/16 01:01:51;;;;;;;2.40;1.60;;;;;;;;;;2060034;28;20097;-69
2023/07/16 01:03:11;;;;;;;1.90;1.45;;;;;;;;;;2057675;28;20035;-68
2023/07/16 01:04:30;;;;;;;2.95;1.70;;;;;;;;;;2062739;28;20479;-69
2023/07/16 01:05:55;;;;;;;1.50;1.40;;;;;;;;;;2059495;28;20038;-69
2023/07/16 01:07:15;;;;;;;3.95;1.67;;;;;;;;;;2056527;28;20022;-68
2023/07/16 01:08:37;;;;;;;1.80;1.40;;;;;;;;;;2054563;28;20023;-69
2023/07/16 01:09:56;;;;;;;2.08;1.50;;;;;;;;;;2056412;28;20113;-68
2023/07/16 01:11:16;;;;;;;3.63;1.60;;;;;;;;;;2060067;28;20030;-68
2023/07/16 01:12:35;;;;;;;2.85;1.67;;;;;;;;;;2056094;28;20030;-68
2023/07/16 01:13:54;;;;;;;2.45;1.67;;;;;;;;;;2064724;28;20056;-68
2023/07/16 01:15:13;;;;;;;2.95;1.77;;;;;;;;;;2063428;28;20055;-70
2023/07/16 01:16:32;;;;;;;3.55;1.60;;;;;;;;;;2056947;28;20035;-66
2023/07/16 01:17:51;;;;;;;2.97;1.38;;;;;;;;;;2059575;28;20399;-65
2023/07/16 01:19:10;;;;;;;2.25;1.83;;;;;;;;;;2057892;28;20407;-69
2023/07/16 01:20:29;;;;;;;2.67;1.60;;;;;;;;;;2056493;28;20030;-68
2023/07/16 01:21:48;;;;;;;3.50;1.90;;;;;;;;;;2056307;28;20113;-69
2023/07/16 01:23:26;;;;;;;1.80;1.70;;;;;;;;;;2069129;28;20037;-69
2023/07/16 01:25:08;;;;;;;1.42;1.33;;;;;;;;;;2057384;28;20023;-69
2023/07/16 01:26:33;;;;;;;3.63;2.10;;;;;;;;;;2051645;28;20035;-68
2023/07/16 01:27:52;;;;;;;2.55;1.55;;;;;;;;;;2055143;28;20388;-65
2023/07/16 01:29:30;;;;;;;3.80;1.42;;;;;;;;;;2057236;28;20038;-68
2023/07/16 01:30:50;;;;;;;3.40;1.63;;;;;;;;;;2057130;28;20023;-68
2023/07/16 01:32:11;;;;;;;2.78;1.85;;;;;;;;;;2055233;28;20030;-67
2023/07/16 01:33:31;;;;;;;2.00;1.65;;;;;;;;;;2059277;28;20396;-68
2023/07/16 01:34:52;;;;;;;2.58;1.88;;;;;;;;;;2065521;28;20042;-68
2023/07/16 01:36:11;;;;;;;3.30;1.60;;;;;;;;;;2049289;28;20520;-69
2023/07/16 01:37:31;;;;;;;1.65;1.50;;;;;;;;;;2053398;28;20043;-68
2023/07/16 01:38:50;;;;;;;1.67;1.58;;;;;;;;;;2047636;28;20031;-68
2023/07/16 01:40:09;;;;;;;2.70;1.52;;;;;;;;;;2053713;28;20042;-68
2023/07/16 01:41:28;;;;;;;3.75;1.50;;;;;;;;;;2057348;28;20026;-68
2023/07/16 01:42:47;;;;;;;2.55;1.60;;;;;;;;;;2066973;28;20043;-65
2023/07/16 01:44:06;;;;;;;4.22;1.77;;;;;;;;;;2060637;28;20035;-69
2023/07/16 01:45:25;;;;;;;1.92;1.70;;;;;;;;;;2056613;28;20027;-68
2023/07/16 01:46:44;;;;;;;2.53;1.40;;;;;;;;;;2057376;28;20511;-67
2023/07/16 01:48:13;;;;;;;1.55;1.45;;;;;;;;;;2059296;28;20495;-68
2023/07/16 01:49:33;;;;;;;3.15;2.03;;;;;;;;;;2057357;28;20473;-69
2023/07/16 01:50:51;;;;;;;2.00;1.80;;;;;;;;;;2069757;28;20033;-69
2023/07/16 01:52:10;;;;;;;3.08;1.75;;;;;;;;;;2058993;28;20126;-69
2023/07/16 01:53:29;;;;;;;4.20;1.80;;;;;;;;;;2057718;28;20031;-68
2023/07/16 01:54:48;;;;;;;5.38;1.40;;;;;;;;;;2057919;28;20030;-69
2023/07/16 01:56:07;;;;;;;3.88;1.42;;;;;;;;;;2056844;28;20046;-68
2023/07/16 01:57:26;;;;;;;2.05;1.65;;;;;;;;;;2057706;28;20039;-69
2023/07/16 01:58:45;;;;;;;3.30;1.52;;;;;;;;;;2055718;28;20035;-69
2023/07/16 02:00:04;;;;;;;3.53;1.60;;;;;;;;;;2056014;28;20038;-64
2023/07/16 02:01:24;;;;;;;2.05;1.50;;;;;;;;;;2062118;28;20051;-69
2023/07/16 02:02:42;;;;;;;5.53;1.60;;;;;;;;;;2062809;28;20133;-68
2023/07/16 02:04:02;;;;;;;3.03;1.50;;;;;;;;;;2056586;28;20511;-69
2023/07/16 02:05:20;;;;;;;1.80;1.70;;;;;;;;;;2057695;28;20081;-68
2023/07/16 02:06:39;;;;;;;2.60;1.70;;;;;;;;;;2056396;28;20507;-67
2023/07/16 02:07:58;;;;;;;1.70;1.60;;;;;;;;;;2057569;28;20050;-68
2023/07/16 02:09:17;;;;;;;3.03;1.65;;;;;;;;;;2056853;28;20031;-69
2023/07/16 02:10:36;;;;;;;2.28;1.67;;;;;;;;;;2062507;28;20106;-69
2023/07/16 02:11:55;;;;;;;2.78;1.45;;;;;;;;;;2056119;28;20141;-68
2023/07/16 02:13:15;;;;;;;3.92;1.77;;;;;;;;;;2057897;28;20081;-69
2023/07/16 02:14:33;;;;;;;3.78;1.70;;;;;;;;;;2057708;28;20031;-67
2023/07/16 02:15:52;;;;;;;2.45;1.83;;;;;;;;;;2058502;28;20433;-69
2023/07/16 02:17:11;;;;;;;1.70;1.55;;;;;;;;;;2057385;28;20035;-68
2023/07/16 02:18:30;;;;;;;2.38;1.90;;;;;;;;;;2058432;28;20026;-69
2023/07/16 02:19:49;;;;;;;2.38;1.60;;;;;;;;;;2057556;28;20979;-69
2023/07/16 02:21:08;;;;;;;1.50;1.33;;;;;;;;;;2059829;28;20054;-68
2023/07/16 02:22:27;;;;;;;1.80;1.45;;;;;;;;;;2059223;28;20031;-68
2023/07/16 02:23:46;;;;;;;3.70;1.67;;;;;;;;;;2058033;28;20505;-69
2023/07/16 02:25:05;;;;;;;2.55;1.58;;;;;;;;;;2056921;28;20031;-67
2023/07/16 02:26:25;;;;;;;2.33;1.85;;;;;;;;;;2058737;28;20066;-68
2023/07/16 02:27:44;;;;;;;2.30;1.75;;;;;;;;;;2057950;28;20026;-68
2023/07/16 02:29:04;;;;;;;4.88;1.63;;;;;;;;;;2049111;28;20032;-68
2023/07/16 02:30:23;;;;;;;3.42;1.80;;;;;;;;;;2054274;28;20514;-68
2023/07/16 02:31:45;;;;;;;1.65;1.55;;;;;;;;;;2059578;28;20038;-68
2023/07/16 02:33:04;;;;;;;2.28;1.42;;;;;;;;;;2059288;28;20422;-65
2023/07/16 02:34:23;;;;;;;3.85;1.65;;;;;;;;;;2058865;28;20030;-68
2023/07/16 02:35:51;;;;;;;2.25;1.80;;;;;;;;;;2057683;28;20105;-67
2023/07/16 02:37:10;;;;;;;2.60;1.55;;;;;;;;;;2058320;28;20034;-68
2023/07/16 02:38:29;;;;;;;2.53;1.83;;;;;;;;;;2050121;28;20035;-68
2023/07/16 02:39:48;;;;;;;3.25;1.58;;;;;;;;;;2054829;28;20066;-66
2023/07/16 02:41:07;;;;;;;4.32;1.90;;;;;;;;;;2057048;28;20027;-67
2023/07/16 02:42:26;;;;;;;2.45;1.73;;;;;;;;;;2057200;28;20030;-68
2023/07/16 02:43:45;;;;;;;2.47;1.75;;;;;;;;;;2057426;28;20046;-67
2023/07/16 02:45:04;;;;;;;4.38;1.60;;;;;;;;;;2058133;28;20026;-67
2023/07/16 02:46:23;;;;;;;1.83;1.65;;;;;;;;;;2058579;28;20105;-69
2023/07/16 02:47:42;;;;;;;2.67;1.58;;;;;;;;;;2057199;28;20058;-68
2023/07/16 02:49:02;;;;;;;3.17;1.60;;;;;;;;;;2056909;28;20018;-68
2023/07/16 02:50:21;;;;;;;1.75;1.65;;;;;;;;;;2048712;28;20069;-68
2023/07/16 02:51:41;;;;;;;4.05;1.67;;;;;;;;;;2054647;28;20535;-68
2023/07/16 02:52:59;;;;;;;2.53;1.73;;;;;;;;;;2058081;28;20031;-68
2023/07/16 02:54:18;;;;;;;2.25;1.60;;;;;;;;;;2058836;28;20081;-68
2023/07/16 02:55:37;;;;;;;1.92;1.70;;;;;;;;;;2063036;28;20382;-68
2023/07/16 02:56:56;;;;;;;4.57;1.75;;;;;;;;;;2058300;28;20039;-68
2023/07/16 02:58:15;;;;;;;3.30;1.70;;;;;;;;;;2058587;28;20035;-66
2023/07/16 02:59:34;;;;;;;2.72;1.50;;;;;;;;;;2057828;28;20054;-68
2023/07/16 03:00:54;;;;;;;2.47;1.83;;;;;;;;;;2056672;28;20059;-68
2023/07/16 03:02:13;;;;;;;2.85;1.83;;;;;;;;;;2056384;28;20051;-67
2023/07/16 03:03:32;;;;;;;3.20;1.80;;;;;;;;;;2056227;28;20036;-69
2023/07/16 03:04:51;;;;;;;2.75;1.70;;;;;;;;;;2060568;28;20110;-68
2023/07/16 03:06:10;;;;;;;2.00;1.73;;;;;;;;;;2056075;28;20038;-68
2023/07/16 03:07:29;;;;;;;3.20;1.77;;;;;;;;;;2057010;28;20045;-66
2023/07/16 03:08:48;;;;;;;4.45;1.70;;;;;;;;;;2048589;28;20039;-68
2023/07/16 03:10:07;;;;;;;3.80;1.77;;;;;;;;;;2053985;28;20031;-65
2023/07/16 03:11:26;;;;;;;2.90;1.70;;;;;;;;;;2057535;28;20102;-67
2023/07/16 03:12:45;;;;;;;3.00;1.88;;;;;;;;;;2058481;28;20447;-68
2023/07/16 03:14:04;;;;;;;2.67;1.73;;;;;;;;;;2058704;28;20030;-68
2023/07/16 03:15:23;;;;;;;3.17;1.65;;;;;;;;;;2059765;28;20035;-68
2023/07/16 03:16:42;;;;;;;2.17;1.73;;;;;;;;;;2057611;28;20055;-68
2023/07/16 03:18:01;;;;;;;3.20;1.77;;;;;;;;;;2058335;28;20399;-67
2023/07/16 03:19:20;;;;;;;6.18;1.73;;;;;;;;;;2057482;28;20118;-68
2023/07/16 03:20:39;;;;;;;2.50;1.65;;;;;;;;;;2057418;28;20031;-68
2023/07/16 03:21:58;;;;;;;2.97;1.60;;;;;;;;;;2058255;28;20395;-68
2023/07/16 03:23:17;;;;;;;2.40;1.67;;;;;;;;;;2056863;28;20031;-67
2023/07/16 03:24:36;;;;;;;4.25;2.25;;;;;;;;;;2057775;28;20676;-68
2023/07/16 03:25:55;;;;;;;4.68;1.50;;;;;;;;;;2059517;28;20072;-68
2023/07/16 03:27:14;;;;;;;4.60;1.70;;;;;;;;;;2050110;28;20031;-68
2023/07/16 03:28:32;;;;;;;4.05;1.42;;;;;;;;;;2060655;28;20115;-68
2023/07/16 03:29:51;;;;;;;2.97;1.45;;;;;;;;;;2048069;28;20035;-69
2023/07/16 03:31:11;;;;;;;6.70;2.15;;;;;;;;;;2055588;28;20039;-68
2023/07/16 03:32:30;;;;;;;2.90;1.92;;;;;;;;;;2057760;28;20031;-68
2023/07/16 03:33:49;;;;;;;4.75;1.77;;;;;;;;;;2060840;28;20029;-69
2023/07/16 03:35:08;;;;;;;2.30;1.70;;;;;;;;;;2057099;28;20034;-69
2023/07/16 03:36:27;;;;;;;2.88;1.45;;;;;;;;;;2055404;28;20050;-68
2023/07/16 03:37:46;;;;;;;2.47;1.70;;;;;;;;;;2057176;28;20035;-68
2023/07/16 03:39:05;;;;;;;2.85;1.52;;;;;;;;;;2048721;28;20035;-69
2023/07/16 03:40:25;;;;;;;2.78;1.77;;;;;;;;;;2060627;28;20038;-69
2023/07/16 03:41:43;;;;;;;4.28;2.05;;;;;;;;;;2062083;28;20511;-69
2023/07/16 03:43:02;;;;;;;4.18;1.90;;;;;;;;;;2052376;28;20031;-70
2023/07/16 03:44:21;;;;;;;2.00;1.58;;;;;;;;;;2054293;28;20038;-68
2023/07/16 03:45:40;;;;;;;4.53;1.88;;;;;;;;;;2057208;28;20387;-68
2023/07/16 03:46:59;;;;;;;2.28;1.70;;;;;;;;;;2057519;28;20396;-68
2023/07/16 03:48:18;;;;;;;2.60;1.77;;;;;;;;;;2057026;28;20471;-68
2023/07/16 03:49:37;;;;;;;3.08;1.80;;;;;;;;;;2062026;28;20499;-68
2023/07/16 03:50:56;;;;;;;3.83;1.60;;;;;;;;;;2057456;28;20042;-69
2023/07/16 03:52:15;;;;;;;3.30;1.73;;;;;;;;;;2057511;28;20030;-68
2023/07/16 03:53:34;;;;;;;2.83;1.75;;;;;;;;;;2047892;28;20089;-68
2023/07/16 03:54:52;;;;;;;3.03;1.80;;;;;;;;;;2052148;28;20038;-68
2023/07/16 03:56:11;;;;;;;3.60;2.00;;;;;;;;;;2057071;28;20039;-72
2023/07/16 03:57:30;;;;;;;2.30;2.10;;;;;;;;;;2058064;28;20391;-68
2023/07/16 03:58:49;;;;;;;4.75;2.20;;;;;;;;;;2056929;28;20035;-70
2023/07/16 04:00:09;;;;;;;2.92;2.13;;;;;;;;;;2048444;28;20023;-70
2023/07/16 04:01:29;;;;;;;3.97;1.90;;;;;;;;;;2053744;28;20054;-70
2023/07/16 04:02:50;;;;;;;2.90;2.08;;;;;;;;;;2056437;28;20051;-74
2023/07/16 04:04:08;;;;;;;5.10;2.38;;;;;;;;;;2058286;28;20038;-75
2023/07/16 04:05:27;;;;;;;2.53;2.15;;;;;;;;;;2057935;28;20030;-67
2023/07/16 04:06:46;;;;;;;4.18;2.13;;;;;;;;;;2057383;28;20018;-71
2023/07/16 04:08:06;;;;;;;3.08;2.25;;;;;;;;;;2057215;28;20034;-75
2023/07/16 04:09:25;;;;;;;4.78;2.22;;;;;;;;;;2058593;28;20027;-70
2023/07/16 04:10:43;;;;;;;3.83;2.10;;;;;;;;;;2057836;28;20026;-72
2023/07/16 04:12:02;;;;;;;3.17;2.13;;;;;;;;;;2059092;28;20023;-68
2023/07/16 04:13:21;;;;;;;8.75;2.50;;;;;;;;;;2057688;28;20025;-68
2023/07/16 04:14:40;;;;;;;3.72;2.33;;;;;;;;;;2056318;28;20483;-63
2023/07/16 04:15:59;;;;;;;4.65;2.50;;;;;;;;;;2057836;28;20488;-68
2023/07/16 04:17:18;;;;;;;3.63;2.47;;;;;;;;;;2058273;28;20495;-70
2023/07/16 04:18:37;;;;;;;6.50;2.25;;;;;;;;;;2055965;28;20101;-67
2023/07/16 04:19:56;;;;;;;4.88;2.42;;;;;;;;;;2057333;28;20031;-70
2023/07/16 04:21:15;;;;;;;3.30;1.98;;;;;;;;;;2057845;28;20038;-66
2023/07/16 04:22:35;;;;;;;5.22;2.10;;;;;;;;;;2058106;28;20031;-68
2023/07/16 04:23:54;;;;;;;4.30;2.40;;;;;;;;;;2062968;28;20046;-67
2023/07/16 04:25:13;;;;;;;3.50;2.40;;;;;;;;;;2056472;28;20390;-67
2023/07/16 04:26:32;;;;;;;4.53;2.30;;;;;;;;;;2056223;28;20484;-68
2023/07/16 04:27:51;;;;;;;3.55;2.10;;;;;;;;;;2055934;28;20034;-69
2023/07/16 04:29:10;;;;;;;4.03;2.30;;;;;;;;;;2056501;28;20050;-68
2023/07/16 04:30:29;;;;;;;4.90;2.42;;;;;;;;;;2060531;28;20034;-68
2023/07/16 04:31:48;;;;;;;4.28;2.15;;;;;;;;;;2057408;28;20101;-69
2023/07/16 04:33:07;;;;;;;4.95;2.58;;;;;;;;;;2056396;28;20038;-71
2023/07/16 04:34:26;;;;;;;3.17;2.38;;;;;;;;;;2056515;28;20491;-69
2023/07/16 04:35:45;;;;;;;5.45;2.58;;;;;;;;;;2056742;28;20035;-68
2023/07/16 04:37:04;;;;;;;5.38;2.50;;;;;;;;;;2058633;28;20026;-69
2023/07/16 04:38:23;;;;;;;4.93;2.05;;;;;;;;;;2057891;28;20034;-67
2023/07/16 04:39:42;;;;;;;2.50;2.13;;;;;;;;;;2058485;28;20033;-69
2023/07/16 04:41:01;;;;;;;5.45;2.28;;;;;;;;;;2057735;28;20035;-68
2023/07/16 04:42:20;;;;;;;4.10;3.03;;;;;;;;;;2055186;28;20035;-68
2023/07/16 04:43:39;;;;;;;3.70;2.22;;;;;;;;;;2055979;28;20035;-68
2023/07/16 04:44:58;;;;;;;4.35;2.47;;;;;;;;;;2055901;28;20035;-72
2023/07/16 04:46:17;;;;;;;4.25;2.33;;;;;;;;;;2059872;28;20050;-68
2023/07/16 04:47:36;;;;;;;5.15;2.40;;;;;;;;;;2057028;28;20023;-68
2023/07/16 04:48:55;;;;;;;2.50;2.20;;;;;;;;;;2056516;28;20556;-68
2023/07/16 04:50:14;;;;;;;5.10;2.47;;;;;;;;;;2057625;28;20500;-68
2023/07/16 04:51:33;;;;;;;4.22;2.60;;;;;;;;;;2058009;28;20034;-68
2023/07/16 04:52:52;;;;;;;3.80;2.58;;;;;;;;;;2058230;28;20065;-68
2023/07/16 04:54:11;;;;;;;4.30;2.80;;;;;;;;;;2059125;28;20383;-68
2023/07/16 04:55:35;;;;;;;6.30;2.53;;;;;;;;;;2057154;28;20030;-69
2023/07/16 04:56:54;;;;;;;6.88;2.97;;;;;;;;;;2056289;28;20030;-68
2023/07/16 04:58:13;;;;;;;4.47;2.72;;;;;;;;;;2057029;28;20035;-66
2023/07/16 04:59:32;;;;;;;3.60;2.47;;;;;;;;;;2062905;28;20039;-69
2023/07/16 05:00:51;;;;;;;3.13;2.72;;;;;;;;;;2056295;28;20039;-67
2023/07/16 05:02:10;;;;;;;2.97;2.53;;;;;;;;;;2056348;28;20042;-71
2023/07/16 05:03:29;;;;;;;5.25;2.70;;;;;;;;;;2056811;28;20026;-68
2023/07/16 05:04:48;;;;;;;3.67;2.67;;;;;;;;;;2057789;28;20110;-68
2023/07/16 05:06:07;;;;;;;2.88;2.65;;;;;;;;;;2058712;28;20031;-69
2023/07/16 05:07:26;;;;;;;7.32;2.80;;;;;;;;;;2059462;28;20076;-68
2023/07/16 05:08:45;;;;;;;3.10;2.50;;;;;;;;;;2058478;28;20271;-68
2023/07/16 05:10:04;;;;;;;4.03;2.65;;;;;;;;;;2062463;28;20034;-66
2023/07/16 05:11:25;;;;;;;3.03;2.45;;;;;;;;;;2058472;28;20034;-66
2023/07/16 05:12:44;;;;;;;5.30;2.45;;;;;;;;;;2058084;28;20031;-68
2023/07/16 05:14:03;;;;;;;2.90;2.35;;;;;;;;;;2058813;28;20039;-69
2023/07/16 05:15:22;;;;;;;7.78;2.42;;;;;;;;;;2058903;28;20453;-67
2023/07/16 05:16:41;;;;;;;4.25;2.90;;;;;;;;;;2050423;28;20114;-66
2023/07/16 05:18:00;;;;;;;4.55;3.13;;;;;;;;;;2054825;28;20113;-68
2023/07/16 05:19:19;;;;;;;6.10;2.88;;;;;;;;;;2059837;28;20031;-67
2023/07/16 05:20:38;;;;;;;4.50;2.95;;;;;;;;;;2059152;28;20893;-68
2023/07/16 05:21:57;;;;;;;5.18;2.45;;;;;;;;;;2057434;28;20038;-68
2023/07/16 05:23:16;;;;;;;6.00;3.08;;;;;;;;;;2057822;28;20476;-68
2023/07/16 05:24:35;;;;;;;5.60;2.67;;;;;;;;;;2058360;28;20030;-68
2023/07/16 05:25:54;;;;;;;4.70;2.42;;;;;;;;;;2058395;28;20039;-66
2023/07/16 05:27:13;;;;;;;4.03;2.65;;;;;;;;;;2058973;28;20038;-68
2023/07/16 05:28:32;;;;;;;4.63;2.65;;;;;;;;;;2058220;28;20491;-68
2023/07/16 05:29:51;;;;;;;3.92;2.33;;;;;;;;;;2057284;28;20042;-68
2023/07/16 05:31:10;;;;;;;3.50;2.40;;;;;;;;;;2056863;28;20031;-67
2023/07/16 05:32:29;;;;;;;3.17;2.50;;;;;;;;;;2058320;28;20023;-67
2023/07/16 05:33:48;;;;;;;4.75;2.50;;;;;;;;;;2058772;28;20523;-66
2023/07/16 05:35:07;;;;;;;4.15;2.72;;;;;;;;;;2057651;28;20490;-68
2023/07/16 05:36:26;;;;;;;4.30;2.90;;;;;;;;;;2057938;28;20047;-67
2023/07/16 05:37:45;;;;;;;5.13;3.00;;;;;;;;;;2057918;28;20035;-67
2023/07/16 05:39:04;;;;;;;5.82;2.70;;;;;;;;;;2050158;28;20030;-64
2023/07/16 05:40:23;;;;;;;6.30;2.65;;;;;;;;;;2054684;28;20030;-67
2023/07/16 05:41:42;;;;;;;4.65;2.92;;;;;;;;;;2058544;28;20031;-68
2023/07/16 05:43:02;;;;;;;6.10;2.90;;;;;;;;;;2058691;28;20425;-66
2023/07/16 05:44:20;;;;;;;5.35;2.75;;;;;;;;;;2059391;28;20018;-67
2023/07/16 05:45:39;;;;;;;3.45;2.55;;;;;;;;;;2058439;28;20031;-67
2023/07/16 05:46:58;;;;;;;4.40;2.92;;;;;;;;;;2058099;28;20101;-68
2023/07/16 05:48:18;;;;;;;8.02;3.00;;;;;;;;;;2058562;28;20053;-68
2023/07/16 05:49:37;;;;;;;4.38;3.10;;;;;;;;;;2059194;28;20606;-68
2023/07/16 05:50:56;;;;;;;3.33;2.63;;;;;;;;;;2058219;28;20495;-68
2023/07/16 05:52:15;;;;;;;3.42;2.50;;;;;;;;;;2057507;28;20022;-67
2023/07/16 05:53:34;;;;;;;7.78;3.13;;;;;;;;;;2059294;28;20122;-67
2023/07/16 05:54:52;;;;;;;3.03;2.60;;;;;;;;;;2064483;28;20035;-68
2023/07/16 05:56:12;;;;;;;4.75;2.65;;;;;;;;;;2057330;28;20371;-67
2023/07/16 05:57:31;;;;;;;3.58;2.60;;;;;;;;;;2058872;28;20034;-67
2023/07/16 05:58:50;;;;;;;2.95;2.70;;;;;;;;;;2057983;28;20039;-71
2023/07/16 06:00:10;;;;;;;3.75;2.28;;;;;;;;;;2058300;28;20383;-68
2023/07/16 06:01:29;;;;;;;4.07;2.50;;;;;;;;;;2059712;28;20523;-68
2023/07/16 06:02:48;;;;;;;3.20;2.70;;;;;;;;;;2059183;28;20043;-68
2023/07/16 06:04:07;;;;;;;3.33;2.63;;;;;;;;;;2058959;28;20407;-68
2023/07/16 06:05:26;;;;;;;5.40;2.60;;;;;;;;;;2059019;28;20035;-68
2023/07/16 06:06:45;;;;;;;5.00;2.45;;;;;;;;;;2050021;28;20728;-68
2023/07/16 06:08:04;;;;;;;3.60;2.63;;;;;;;;;;2053017;28;20046;-68
2023/07/16 06:09:23;;;;;;;4.10;2.42;;;;;;;;;;2058025;28;20514;-68
2023/07/16 06:10:42;;;;;;;6.45;2.67;;;;;;;;;;2058659;28;20043;-66
2023/07/16 06:12:01;;;;;;;2.97;2.47;;;;;;;;;;2058971;28;20023;-68
2023/07/16 06:13:20;;;;;;;3.72;2.30;;;;;;;;;;2057832;28;20388;-68
2023/07/16 06:14:39;;;;;;;6.95;2.78;;;;;;;;;;2057366;28;20039;-69
2023/07/16 06:15:57;;;;;;;5.93;2.50;;;;;;;;;;2058123;28;20023;-68
2023/07/16 06:17:16;;;;;;;5.22;2.40;;;;;;;;;;2058607;28;20499;-68
2023/07/16 06:18:35;;;;;;;5.60;2.63;;;;;;;;;;2057776;28;20042;-69
2023/07/16 06:19:54;;;;;;;4.90;2.60;;;;;;;;;;2058296;28;20035;-67
2023/07/16 06:21:13;;;;;;;5.38;2.45;;;;;;;;;;2058843;28;20026;-68
2023/07/16 06:22:32;;;;;;;4.00;2.45;;;;;;;;;;2061656;28;20031;-68
2023/07/16 06:23:51;;;;;;;3.72;2.55;;;;;;;;;;2058825;28;20488;-68
2023/07/16 06:25:10;;;;;;;3.90;2.67;;;;;;;;;;2057777;28;20031;-68
2023/07/16 06:26:29;;;;;;;3.55;2.50;;;;;;;;;;2056924;28;20055;-69
2023/07/16 06:27:48;;;;;;;3.72;2.55;;;;;;;;;;2058032;28;20521;-68
2023/07/16 06:29:07;;;;;;;4.35;2.63;;;;;;;;;;2058168;28;20547;-68
2023/07/16 06:30:26;;;;;;;3.70;2.67;;;;;;;;;;2057567;28;20626;-68
2023/07/16 06:31:56;;;;;;;4.05;2.53;;;;;;;;;;2058802;28;20031;-70
2023/07/16 06:33:15;;;;;;;6.20;2.67;;;;;;;;;;2065338;28;20042;-70
2023/07/16 06:34:34;;;;;;;5.88;3.40;;;;;;;;;;2056678;28;20030;-66
2023/07/16 06:35:53;;;;;;;3.45;2.72;;;;;;;;;;2057754;28;20023;-68
2023/07/16 06:37:12;;;;;;;5.95;2.60;;;;;;;;;;2058087;28;20034;-68
2023/07/16 06:38:31;;;;;;;4.90;2.60;;;;;;;;;;2057253;28;20034;-67
2023/07/16 06:39:50;;;;;;;6.03;3.10;;;;;;;;;;2057774;28;20023;-68
2023/07/16 06:41:09;;;;;;;3.60;2.58;;;;;;;;;;2057665;28;20077;-68
2023/07/16 06:42:29;;;;;;;5.70;2.63;;;;;;;;;;2057378;28;20073;-68
2023/07/16 06:43:47;;;;;;;5.30;2.70;;;;;;;;;;2057083;28;20031;-69
2023/07/16 06:45:07;;;;;;;3.15;2.45;;;;;;;;;;2058624;28;20030;-67
2023/07/16 06:46:26;;;;;;;5.00;2.55;;;;;;;;;;2058082;28;20110;-68
2023/07/16 06:47:45;;;;;;;3.22;2.80;;;;;;;;;;2057439;28;20062;-68
2023/07/16 06:49:05;;;;;;;3.33;2.97;;;;;;;;;;2058681;28;20022;-68
2023/07/16 06:50:24;;;;;;;4.40;2.92;;;;;;;;;;2058239;28;20027;-68
2023/07/16 06:51:42;;;;;;;3.75;2.40;;;;;;;;;;2049206;28;20027;-67
2023/07/16 06:53:01;;;;;;;2.85;2.28;;;;;;;;;;2046091;28;20126;-68
2023/07/16 06:54:21;;;;;;;4.10;2.53;;;;;;;;;;2055530;28;20035;-67
2023/07/16 06:55:40;;;;;;;4.97;2.92;;;;;;;;;;2058345;28;20461;-68
2023/07/16 06:56:59;;;;;;;4.72;2.55;;;;;;;;;;2058521;28;20045;-67
2023/07/16 06:58:18;;;;;;;4.72;2.50;;;;;;;;;;2058781;28;20022;-67
2023/07/16 06:59:37;;;;;;;6.53;2.97;;;;;;;;;;2063594;28;20029;-68
2023/07/16 07:00:56;;;;;;;4.57;2.50;;;;;;;;;;2056592;28;20043;-69
2023/07/16 07:02:18;;;;;;;8.43;2.90;;;;;;;;;;2057838;28;20030;-68
2023/07/16 07:03:37;;;;;;;4.70;3.10;;;;;;;;;;2058144;28;20034;-65
2023/07/16 07:04:56;;;;;;;4.60;2.50;;;;;;;;;;2057989;28;20507;-68
2023/07/16 07:06:15;;;;;;;2.47;2.20;;;;;;;;;;2057092;28;20059;-68
2023/07/16 07:07:34;;;;;;;3.83;2.72;;;;;;;;;;2057846;28;20027;-68
2023/07/16 07:08:53;;;;;;;12.98;2.80;;;;;;;;;;2063752;28;20026;-68
2023/07/16 07:10:12;;;;;;;4.03;2.60;;;;;;;;;;2058402;28;20015;-68
2023/07/16 07:11:31;;;;;;;5.43;2.78;;;;;;;;;;2058064;28;20038;-68
2023/07/16 07:12:50;;;;;;;7.03;2.40;;;;;;;;;;2056433;28;20423;-67
2023/07/16 07:14:09;;;;;;;6.45;3.50;;;;;;;;;;2057335;28;20058;-67
2023/07/16 07:15:28;;;;;;;7.30;2.35;;;;;;;;;;2056977;28;20027;-68
2023/07/16 07:16:47;;;;;;;4.30;2.67;;;;;;;;;;2057772;28;20035;-66
2023/07/16 07:18:06;;;;;;;5.15;2.97;;;;;;;;;;2057864;28;20125;-67
2023/07/16 07:19:26;;;;;;;4.28;2.78;;;;;;;;;;2059045;28;20149;-68
2023/07/16 07:20:47;;;;;;;7.03;2.63;;;;;;;;;;2056906;28;20149;-67
2023/07/16 07:22:06;;;;;;;5.53;3.38;;;;;;;;;;2047902;28;20031;-67
2023/07/16 07:23:25;;;;;;;9.27;3.05;;;;;;;;;;2052916;28;20015;-68
2023/07/16 07:24:44;;;;;;;3.63;2.55;;;;;;;;;;2055739;28;20026;-66
2023/07/16 07:26:03;;;;;;;5.78;3.00;;;;;;;;;;2070048;28;20029;-68
2023/07/16 07:27:22;;;;;;;6.40;2.92;;;;;;;;;;2057548;28;20027;-68
2023/07/16 07:28:41;;;;;;;7.10;2.78;;;;;;;;;;2058139;28;20471;-68
2023/07/16 07:30:01;;;;;;;5.22;2.53;;;;;;;;;;2049305;28;20027;-68
2023/07/16 07:31:19;;;;;;;7.18;2.97;;;;;;;;;;2053898;28;21079;-69
2023/07/16 07:32:38;;;;;;;4.38;2.95;;;;;;;;;;2057603;28;20035;-69
2023/07/16 07:33:58;;;;;;;5.13;2.75;;;;;;;;;;2056511;28;20035;-68
2023/07/16 07:35:17;;;;;;;6.70;2.95;;;;;;;;;;2058549;28;20038;-69
2023/07/16 07:36:36;;;;;;;5.28;3.20;;;;;;;;;;2058137;28;20031;-68
2023/07/16 07:37:55;;;;;;;4.57;2.90;;;;;;;;;;2057727;28;20499;-69
2023/07/16 07:39:14;;;;;;;10.05;3.13;;;;;;;;;;2058169;28;20046;-69
2023/07/16 07:40:33;;;;;;;5.35;2.80;;;;;;;;;;2058076;28;20030;-67
2023/07/16 07:41:52;;;;;;;4.93;2.83;;;;;;;;;;2057153;28;20026;-64
2023/07/16 07:43:11;;;;;;;3.92;2.97;;;;;;;;;;2061889;28;20535;-69
2023/07/16 07:44:30;;;;;;;6.68;3.00;;;;;;;;;;2057842;28;20039;-67
2023/07/16 07:45:49;;;;;;;5.53;3.38;;;;;;;;;;2059626;28;20515;-68
2023/07/16 07:47:08;;;;;;;5.15;2.78;;;;;;;;;;2050946;28;20035;-69
2023/07/16 07:48:27;;;;;;;5.00;3.72;;;;;;;;;;2054803;28;20433;-69
2023/07/16 07:49:46;;;;;;;5.05;2.90;;;;;;;;;;2058154;28;20034;-68
2023/07/16 07:51:05;;;;;;;5.63;3.60;;;;;;;;;;2048603;28;20038;-68
2023/07/16 07:52:24;;;;;;;6.15;3.03;;;;;;;;;;2053846;28;20038;-68
2023/07/16 07:53:43;;;;;;;6.25;2.65;;;;;;;;;;2055841;28;20104;-67
2023/07/16 07:55:02;;;;;;;6.07;2.83;;;;;;;;;;2059667;28;20026;-69
2023/07/16 07:56:21;;;;;;;6.20;3.10;;;;;;;;;;2056595;28;20422;-67